North Westchester, Connecticut
Current Conditions -  °F | °C
As of 1:55 AM on Friday 28 Nov 2014 (Local Time) from KSNC Reporting Station
Overcast Overcast  
Wind Chill: 27°   Ceiling: 4400
Heat Index: 32°   Visibility: 10mi
Dew Point: 30°   Wind: 5mph
Humidity: 93%   Direction: 360°N
Pressure: 30"   Gusts: NA
Location:  41.58°N, 72.4°W
Report Text: KSNC 280655Z AUTO 36004KT 10SM OVC044 00/M01 A3000 RMK AO2
Loading
Personal Weather Stations






























Interactive Weather Map New forecast layout! Learn more

10-Day Weather Forecast

Advertisements
Track Severe Weather on mobile